Time;durP1;ratioP1;P1;durP2;ratioP2;P2;SDS_P1;SDS_P2;PMS_P1;PMS_P2;Temp;Humidity;BMP_temperature;BMP_pressure;BME280_temperature;BME280_humidity;BME280_pressure;Samples;Min_cycle;Max_cycle;Signal;HPM_P1;HPM_P2
2023/06/05 00:01:34;;;;;;;0.60;0.50;;;16.50;73.60;;;;;;5029922;28;20208;-61
2023/06/05 00:04:02;;;;;;;0.70;0.50;;;16.50;73.70;;;;;;5022149;28;20236;-61
2023/06/05 00:06:31;;;;;;;1.05;0.50;;;16.50;74.40;;;;;;5031782;28;20556;-61
2023/06/05 00:08:58;;;;;;;0.60;0.40;;;16.50;74.80;;;;;;5029071;28;20205;-61
2023/06/05 00:11:26;;;;;;;0.60;0.40;;;16.50;73.80;;;;;;5034409;28;20205;-61
2023/06/05 00:13:54;;;;;;;0.70;0.50;;;16.50;74.40;;;;;;5028381;28;20221;-61
2023/06/05 00:16:23;;;;;;;0.60;0.40;;;16.50;74.20;;;;;;5015384;28;20272;-61
2023/06/05 00:18:52;;;;;;;0.70;0.50;;;16.40;74.40;;;;;;5031639;28;20255;-61
2023/06/05 00:21:20;;;;;;;0.70;0.60;;;16.40;74.90;;;;;;5031498;28;20212;-60
2023/06/05 00:23:47;;;;;;;0.60;0.40;;;16.30;74.40;;;;;;5034164;28;20282;-61
2023/06/05 00:26:15;;;;;;;0.60;0.45;;;16.30;74.00;;;;;;5033827;28;20655;-60
2023/06/05 00:28:43;;;;;;;0.60;0.43;;;16.30;74.60;;;;;;5032618;28;20216;-61
2023/06/05 00:31:12;;;;;;;0.70;0.60;;;16.30;74.40;;;;;;5034008;28;20285;-61
2023/06/05 00:33:42;;;;;;;0.80;0.60;;;16.30;74.20;;;;;;5033836;28;20220;-61
2023/06/05 00:36:11;;;;;;;0.60;0.40;;;16.30;74.70;;;;;;5033819;28;20212;-60
2023/06/05 00:38:39;;;;;;;0.60;0.40;;;16.20;74.40;;;;;;5033770;28;20216;-61
2023/06/05 00:41:07;;;;;;;0.70;0.43;;;16.20;74.40;;;;;;5033978;28;20212;-61
2023/06/05 00:43:37;;;;;;;1.00;0.70;;;16.20;74.80;;;;;;5030501;28;20275;-60
2023/06/05 00:46:06;;;;;;;0.70;0.50;;;16.20;75.00;;;;;;5016270;28;20225;-60
2023/06/05 00:48:35;;;;;;;0.50;0.30;;;16.20;74.30;;;;;;5033672;28;20675;-60
2023/06/05 00:51:06;;;;;;;0.60;0.40;;;16.20;74.90;;;;;;5033795;28;20242;-60
2023/06/05 00:53:36;;;;;;;0.80;0.40;;;16.20;74.50;;;;;;5033304;28;20228;-61
2023/06/05 00:56:05;;;;;;;0.70;0.40;;;16.20;74.40;;;;;;5031490;28;20208;-60
2023/06/05 00:58:33;;;;;;;0.60;0.50;;;16.20;74.50;;;;;;5026732;28;20224;-60
2023/06/05 01:01:04;;;;;;;0.93;0.60;;;16.20;75.40;;;;;;5023721;28;20209;-61
2023/06/05 01:03:33;;;;;;;0.65;0.45;;;16.10;74.50;;;;;;5029123;28;20769;-60
2023/06/05 01:06:03;;;;;;;0.60;0.50;;;16.10;74.20;;;;;;5022133;28;20209;-60
2023/06/05 01:08:38;;;;;;;1.10;0.50;;;16.10;74.30;;;;;;5032129;28;20207;-60
2023/06/05 01:11:11;;;;;;;0.60;0.40;;;16.10;74.90;;;;;;5029886;28;20266;-60
2023/06/05 01:13:43;;;;;;;0.60;0.40;;;16.10;75.40;;;;;;5028770;28;20228;-60
2023/06/05 01:16:14;;;;;;;0.60;0.45;;;16.10;74.40;;;;;;5026945;28;20246;-60
2023/06/05 01:18:46;;;;;;;0.90;0.45;;;16.10;75.20;;;;;;5031275;28;20319;-60
2023/06/05 01:21:14;;;;;;;0.60;0.40;;;16.10;74.70;;;;;;5028832;28;20232;-60
2023/06/05 01:23:44;;;;;;;0.70;0.52;;;16.10;74.90;;;;;;5022855;28;20778;-61
2023/06/05 01:26:21;;;;;;;0.50;0.30;;;16.10;75.10;;;;;;5025994;28;20838;-60
2023/06/05 01:28:51;;;;;;;0.70;0.40;;;16.10;75.70;;;;;;5029175;28;20201;-60
2023/06/05 01:31:22;;;;;;;0.90;0.60;;;16.10;75.10;;;;;;5029423;28;20219;-60
2023/06/05 01:34:01;;;;;;;1.00;0.65;;;16.00;75.20;;;;;;5027812;28;20274;-60
2023/06/05 01:36:31;;;;;;;0.70;0.50;;;16.00;75.40;;;;;;5026749;28;20201;-60
2023/06/05 01:39:01;;;;;;;1.50;0.90;;;16.00;75.40;;;;;;5026269;28;20245;-60
2023/06/05 01:41:29;;;;;;;0.70;0.50;;;15.90;75.50;;;;;;5027171;28;20220;-60
2023/06/05 01:43:57;;;;;;;0.60;0.40;;;16.00;75.50;;;;;;5027474;28;20236;-59
2023/06/05 01:46:25;;;;;;;1.40;0.45;;;15.90;75.60;;;;;;5026319;28;20208;-60
2023/06/05 01:48:54;;;;;;;0.90;0.50;;;16.00;76.90;;;;;;5017734;28;20254;-60
2023/06/05 01:51:22;;;;;;;0.50;0.40;;;15.90;75.60;;;;;;5029386;28;20233;-60
2023/06/05 01:53:52;;;;;;;0.60;0.40;;;15.90;76.10;;;;;;5022842;28;20631;-60
2023/06/05 01:56:23;;;;;;;0.60;0.40;;;15.90;77.20;;;;;;5026397;28;20209;-60
2023/06/05 01:58:52;;;;;;;0.60;0.50;;;16.00;75.90;;;;;;5029982;28;20308;-60
2023/06/05 02:01:22;;;;;;;0.60;0.50;;;15.90;75.70;;;;;;5031984;28;20208;-60
2023/06/05 02:03:53;;;;;;;0.60;0.50;;;16.00;76.70;;;;;;5030293;28;20224;-60
2023/06/05 02:06:21;;;;;;;0.70;0.50;;;15.90;76.30;;;;;;5031715;28;20208;-59
2023/06/05 02:08:49;;;;;;;0.70;0.45;;;15.90;76.90;;;;;;5029774;28;20207;-60
2023/06/05 02:11:17;;;;;;;0.60;0.45;;;15.90;75.90;;;;;;5029051;28;20288;-60
2023/06/05 02:13:49;;;;;;;0.60;0.40;;;15.90;75.90;;;;;;5027548;28;20714;-61
2023/06/05 02:16:17;;;;;;;0.95;0.40;;;15.80;76.90;;;;;;5028110;28;20209;-61
2023/06/05 02:18:48;;;;;;;0.70;0.55;;;15.90;77.60;;;;;;5023790;28;20224;-61
2023/06/05 02:21:16;;;;;;;0.80;0.50;;;15.80;76.20;;;;;;5028971;28;20659;-61
2023/06/05 02:23:45;;;;;;;0.70;0.55;;;15.80;76.70;;;;;;5023498;28;20213;-61
2023/06/05 02:26:13;;;;;;;0.80;0.65;;;15.70;77.20;;;;;;5022563;28;20284;-60
2023/06/05 02:28:41;;;;;;;0.80;0.60;;;15.70;76.80;;;;;;5027373;28;20204;-61
2023/06/05 02:31:16;;;;;;;0.70;0.50;;;15.70;77.80;;;;;;5028290;28;20211;-61
2023/06/05 02:33:44;;;;;;;0.90;0.55;;;15.70;77.80;;;;;;5027588;28;20327;-61
2023/06/05 02:36:15;;;;;;;0.60;0.47;;;15.60;78.00;;;;;;5029870;28;20216;-60
2023/06/05 02:38:43;;;;;;;0.60;0.50;;;15.70;78.80;;;;;;5026801;28;20565;-61
2023/06/05 02:41:11;;;;;;;1.15;0.60;;;15.70;77.60;;;;;;5021808;28;20209;-61
2023/06/05 02:43:39;;;;;;;0.60;0.40;;;15.60;78.00;;;;;;5025370;28;20718;-60
2023/06/05 02:46:07;;;;;;;1.15;0.50;;;15.60;78.60;;;;;;5027909;28;20220;-61
2023/06/05 02:48:36;;;;;;;0.60;0.40;;;15.60;76.70;;;;;;5021366;28;20208;-61
2023/06/05 02:51:06;;;;;;;0.60;0.43;;;15.70;79.00;;;;;;5027046;28;20204;-61
2023/06/05 02:53:34;;;;;;;1.02;0.68;;;15.70;78.90;;;;;;5027341;28;20224;-60
2023/06/05 02:56:02;;;;;;;0.60;0.40;;;15.70;77.70;;;;;;5025073;28;20245;-61
2023/06/05 02:58:31;;;;;;;0.77;0.50;;;15.70;78.60;;;;;;5020128;28;20205;-61
2023/06/05 03:01:01;;;;;;;0.60;0.40;;;15.60;79.10;;;;;;5019761;28;20680;-60
2023/06/05 03:03:30;;;;;;;1.00;0.50;;;15.60;78.40;;;;;;5027322;28;20605;-61
2023/06/05 03:06:04;;;;;;;1.30;0.45;;;15.60;78.50;;;;;;5026693;28;20282;-60
2023/06/05 03:08:33;;;;;;;0.60;0.40;;;15.60;78.90;;;;;;5019515;28;20237;-60
2023/06/05 03:11:01;;;;;;;0.60;0.50;;;15.60;78.50;;;;;;5021429;28;20227;-60
2023/06/05 03:13:29;;;;;;;0.80;0.50;;;15.60;78.60;;;;;;5026566;28;20227;-60
2023/06/05 03:15:57;;;;;;;0.70;0.50;;;15.60;79.30;;;;;;5027718;28;20209;-60
2023/06/05 03:18:25;;;;;;;0.60;0.40;;;15.60;79.10;;;;;;5024175;28;20268;-60
2023/06/05 03:20:54;;;;;;;0.65;0.60;;;15.60;81.30;;;;;;5029821;28;20220;-60
2023/06/05 03:23:24;;;;;;;0.60;0.40;;;15.70;78.10;;;;;;5020497;28;20236;-61
2023/06/05 03:25:52;;;;;;;0.70;0.60;;;15.60;79.40;;;;;;5014362;28;20278;-60
2023/06/05 03:28:21;;;;;;;1.65;0.82;;;15.70;78.60;;;;;;5028983;28;20204;-60
2023/06/05 03:30:49;;;;;;;0.60;0.40;;;15.60;80.50;;;;;;5030826;28;20577;-60
2023/06/05 03:33:18;;;;;;;0.88;0.70;;;15.60;79.80;;;;;;5023074;28;20259;-61
2023/06/05 03:35:46;;;;;;;0.63;0.55;;;15.60;79.30;;;;;;5019437;28;20713;-60
2023/06/05 03:38:14;;;;;;;1.02;0.45;;;15.60;79.60;;;;;;5022526;28;20282;-61
2023/06/05 03:40:44;;;;;;;0.70;0.52;;;15.60;80.30;;;;;;5023296;28;20229;-60
2023/06/05 03:43:12;;;;;;;0.60;0.55;;;15.50;81.20;;;;;;5022607;28;20276;-60
2023/06/05 03:45:40;;;;;;;0.60;0.40;;;15.50;80.30;;;;;;5025434;28;20208;-60
2023/06/05 03:48:09;;;;;;;0.95;0.43;;;15.60;81.80;;;;;;5025574;28;20216;-60
2023/06/05 03:50:38;;;;;;;0.60;0.40;;;15.60;81.90;;;;;;5025362;28;20291;-61
2023/06/05 03:53:07;;;;;;;0.50;0.40;;;15.50;82.00;;;;;;5025753;28;20239;-61
2023/06/05 03:55:41;;;;;;;0.60;0.50;;;15.60;83.20;;;;;;5028789;28;20553;-61
2023/06/05 03:58:14;;;;;;;0.60;0.40;;;15.60;83.40;;;;;;5026231;28;20278;-60
2023/06/05 04:00:42;;;;;;;0.60;0.50;;;15.60;84.40;;;;;;5028512;28;20225;-61
2023/06/05 04:03:10;;;;;;;0.70;0.40;;;15.70;84.20;;;;;;5026496;28;20235;-61
2023/06/05 04:05:39;;;;;;;1.73;0.50;;;15.70;84.80;;;;;;5027814;28;20270;-60
2023/06/05 04:08:09;;;;;;;0.88;0.50;;;15.70;82.80;;;;;;5026927;28;20287;-61
2023/06/05 04:10:37;;;;;;;0.60;0.40;;;15.70;81.00;;;;;;5022771;28;20215;-61
2023/06/05 04:13:05;;;;;;;0.60;0.50;;;15.80;84.10;;;;;;5027774;28;20729;-60
2023/06/05 04:15:35;;;;;;;0.60;0.40;;;15.80;83.80;;;;;;5022176;28;20209;-60
2023/06/05 04:18:03;;;;;;;2.78;0.73;;;15.80;83.80;;;;;;5026113;28;20663;-61
2023/06/05 04:20:31;;;;;;;0.73;0.60;;;15.80;85.00;;;;;;5028809;28;20221;-60
2023/06/05 04:22:59;;;;;;;0.75;0.50;;;15.70;84.40;;;;;;5023927;28;20236;-60
2023/06/05 04:25:28;;;;;;;0.60;0.50;;;15.80;85.30;;;;;;5025576;28;20232;-60
2023/06/05 04:27:57;;;;;;;0.70;0.60;;;15.80;85.50;;;;;;5022642;28;20691;-61
2023/06/05 04:30:25;;;;;;;0.65;0.47;;;15.80;84.80;;;;;;5024418;28;20201;-61
2023/06/05 04:32:54;;;;;;;0.60;0.40;;;15.90;85.70;;;;;;5025479;28;20782;-60
2023/06/05 04:35:23;;;;;;;0.60;0.40;;;15.90;84.70;;;;;;5025148;28;20682;-61
2023/06/05 04:37:51;;;;;;;0.60;0.40;;;15.90;85.10;;;;;;5025836;28;20216;-61
2023/06/05 04:40:20;;;;;;;1.35;0.50;;;16.00;87.70;;;;;;5030012;28;20227;-61
2023/06/05 04:43:09;;;;;;;0.63;0.60;;;15.90;86.50;;;;;;5028176;28;20618;-60
2023/06/05 04:45:37;;;;;;;0.60;0.40;;;16.00;89.00;;;;;;4986517;28;20206;-72
2023/06/05 04:48:06;;;;;;;0.90;0.43;;;15.90;88.40;;;;;;4992506;28;20209;-72
2023/06/05 04:50:35;;;;;;;0.60;0.40;;;15.90;89.80;;;;;;4991135;28;20206;-72
2023/06/05 04:53:04;;;;;;;0.60;0.40;;;15.90;89.90;;;;;;4992070;28;20210;-71
2023/06/05 04:55:32;;;;;;;0.60;0.40;;;16.00;90.60;;;;;;4988389;28;20554;-72
2023/06/05 04:58:00;;;;;;;0.80;0.60;;;16.00;90.30;;;;;;4991645;28;20225;-71
2023/06/05 05:00:29;;;;;;;0.60;0.50;;;16.00;91.10;;;;;;4991694;28;20222;-71
2023/06/05 05:02:57;;;;;;;0.60;0.45;;;16.00;91.20;;;;;;4990739;28;20209;-72
2023/06/05 05:05:26;;;;;;;0.60;0.40;;;16.20;91.30;;;;;;4987649;28;20206;-71
2023/06/05 05:07:54;;;;;;;0.60;0.47;;;16.20;90.30;;;;;;4989397;28;20225;-72
2023/06/05 05:10:24;;;;;;;0.60;0.40;;;16.20;91.10;;;;;;4991093;28;20303;-71
2023/06/05 05:12:52;;;;;;;0.75;0.40;;;16.30;91.50;;;;;;4990017;28;20213;-71
2023/06/05 05:15:20;;;;;;;0.90;0.50;;;16.50;90.70;;;;;;4990088;28;20213;-71
2023/06/05 05:17:51;;;;;;;1.25;1.08;;;16.50;91.70;;;;;;4991303;28;20202;-72
2023/06/05 05:20:19;;;;;;;0.60;0.40;;;16.60;91.00;;;;;;4987969;28;20228;-72
2023/06/05 05:22:48;;;;;;;0.60;0.40;;;16.60;91.00;;;;;;4987215;28;20210;-71
2023/06/05 05:25:16;;;;;;;0.68;0.50;;;16.70;90.60;;;;;;4991825;28;20208;-71
2023/06/05 05:27:44;;;;;;;0.60;0.40;;;16.70;91.00;;;;;;4989090;28;20704;-72
2023/06/05 05:30:14;;;;;;;0.98;0.93;;;16.70;91.40;;;;;;4991865;28;20206;-71
2023/06/05 05:32:41;;;;;;;0.60;0.43;;;16.80;92.10;;;;;;4989096;28;20205;-72
2023/06/05 05:35:10;;;;;;;0.60;0.40;;;16.90;92.00;;;;;;4993821;28;20230;-70
2023/06/05 05:37:38;;;;;;;0.70;0.45;;;17.00;92.00;;;;;;4998806;28;20222;-70
2023/06/05 05:40:08;;;;;;;0.60;0.40;;;17.10;91.40;;;;;;4990849;28;20208;-70
2023/06/05 05:42:36;;;;;;;0.70;0.70;;;17.10;91.30;;;;;;4986036;28;20704;-71
2023/06/05 05:45:05;;;;;;;0.60;0.40;;;17.20;92.20;;;;;;4990766;28;20771;-71
2023/06/05 05:47:33;;;;;;;0.70;0.47;;;17.30;91.80;;;;;;4985710;28;20207;-71
2023/06/05 05:50:01;;;;;;;0.60;0.40;;;17.40;91.40;;;;;;4988659;28;20202;-71
2023/06/05 05:52:28;;;;;;;0.60;0.50;;;17.50;91.20;;;;;;4997744;28;20571;-71
2023/06/05 05:54:58;;;;;;;0.60;0.40;;;17.50;91.30;;;;;;4975851;28;20233;-71
2023/06/05 05:57:28;;;;;;;0.75;0.47;;;17.60;91.20;;;;;;4986440;28;20207;-72
2023/06/05 05:59:56;;;;;;;0.60;0.40;;;17.80;91.10;;;;;;4987139;28;20217;-71
2023/06/05 06:02:24;;;;;;;0.60;0.40;;;17.90;91.40;;;;;;4987471;28;20253;-71
2023/06/05 06:04:52;;;;;;;0.60;0.40;;;18.10;90.20;;;;;;4984537;28;20239;-71
2023/06/05 06:07:20;;;;;;;0.60;0.60;;;18.20;90.70;;;;;;4986284;28;20210;-71
2023/06/05 06:09:48;;;;;;;1.23;0.40;;;18.40;90.10;;;;;;4988118;28;20206;-70
2023/06/05 06:12:17;;;;;;;0.60;0.40;;;18.50;90.50;;;;;;4992948;28;20614;-71
2023/06/05 06:14:47;;;;;;;0.77;0.57;;;18.70;89.60;;;;;;4992360;28;20241;-71
2023/06/05 06:17:15;;;;;;;0.60;0.40;;;18.80;86.60;;;;;;4992576;28;20202;-69
2023/06/05 06:19:43;;;;;;;0.70;0.50;;;18.80;87.40;;;;;;4990327;28;20221;-68
2023/06/05 06:22:12;;;;;;;0.70;0.40;;;18.90;86.40;;;;;;4992410;28;20210;-69
2023/06/05 06:24:40;;;;;;;1.13;1.02;;;19.00;89.00;;;;;;4984706;28;20277;-72
2023/06/05 06:27:10;;;;;;;1.08;0.85;;;19.20;88.70;;;;;;4989723;28;20206;-71
2023/06/05 06:29:59;;;;;;;0.60;0.40;;;19.30;87.50;;;;;;4992535;28;20270;-71
2023/06/05 06:32:27;;;;;;;0.60;0.50;;;19.40;86.80;;;;;;4992806;28;20572;-71
2023/06/05 06:34:56;;;;;;;0.82;0.57;;;19.50;84.30;;;;;;4992727;28;20237;-71
2023/06/05 06:37:24;;;;;;;0.60;0.50;;;19.50;85.20;;;;;;4992395;28;20215;-70
2023/06/05 06:39:52;;;;;;;0.60;0.50;;;19.60;83.20;;;;;;4992410;28;20207;-72
2023/06/05 06:42:20;;;;;;;0.70;0.50;;;19.60;82.60;;;;;;4992616;28;20230;-71
2023/06/05 06:44:48;;;;;;;0.70;0.63;;;19.70;83.40;;;;;;4992109;28;20237;-71
2023/06/05 06:47:18;;;;;;;0.60;0.40;;;19.70;83.50;;;;;;4992162;28;20202;-71
2023/06/05 06:49:45;;;;;;;0.70;0.50;;;19.70;80.60;;;;;;4993046;28;20257;-72
2023/06/05 06:52:13;;;;;;;0.60;0.40;;;19.90;83.20;;;;;;4993147;28;20207;-69
2023/06/05 06:54:41;;;;;;;0.80;0.80;;;20.10;81.10;;;;;;4992426;28;20222;-70
2023/06/05 06:57:09;;;;;;;0.60;0.40;;;20.20;80.90;;;;;;4992274;28;20210;-69
2023/06/05 06:59:37;;;;;;;0.55;0.40;;;20.30;81.50;;;;;;4992493;28;20218;-69
2023/06/05 07:02:10;;;;;;;0.55;0.30;;;20.40;81.00;;;;;;4985130;28;20223;-70
2023/06/05 07:04:41;;;;;;;0.88;0.73;;;20.40;80.70;;;;;;4992008;28;20269;-70
2023/06/05 07:07:11;;;;;;;0.60;0.45;;;20.50;81.00;;;;;;4991721;28;20207;-70
2023/06/05 07:09:39;;;;;;;0.60;0.30;;;20.60;79.80;;;;;;4992134;28;20203;-70
2023/06/05 07:12:08;;;;;;;0.60;0.40;;;20.60;77.90;;;;;;4992855;28;20199;-70
2023/06/05 07:14:36;;;;;;;0.60;0.40;;;20.60;79.20;;;;;;4992165;28;20706;-70
2023/06/05 07:17:04;;;;;;;0.90;0.40;;;20.70;81.40;;;;;;4991616;28;20200;-70
2023/06/05 07:19:34;;;;;;;0.77;0.60;;;20.90;80.50;;;;;;4992513;28;20576;-70
2023/06/05 07:22:04;;;;;;;0.52;0.38;;;20.90;79.40;;;;;;4991922;28;20274;-70
2023/06/05 07:24:35;;;;;;;0.60;0.50;;;21.00;81.70;;;;;;4991999;28;20238;-70
2023/06/05 07:27:04;;;;;;;0.60;0.30;;;21.10;78.00;;;;;;4991861;28;20565;-70
2023/06/05 07:29:32;;;;;;;0.60;0.40;;;21.10;77.60;;;;;;4992233;28;20214;-70
2023/06/05 07:32:02;;;;;;;0.60;0.40;;;21.10;79.10;;;;;;4992327;28;20207;-70
2023/06/05 07:34:30;;;;;;;0.73;0.63;;;21.20;78.50;;;;;;4992055;28;20299;-70
2023/06/05 07:37:00;;;;;;;0.60;0.40;;;21.10;77.40;;;;;;4991847;28;20222;-71
2023/06/05 07:39:30;;;;;;;0.60;0.50;;;21.20;78.40;;;;;;4992181;28;20207;-71
2023/06/05 07:41:58;;;;;;;0.60;0.40;;;21.20;79.50;;;;;;4991797;28;20240;-70
2023/06/05 07:44:26;;;;;;;0.50;0.40;;;21.10;77.10;;;;;;4991481;28;20247;-71
2023/06/05 07:46:54;;;;;;;0.60;0.40;;;21.20;79.50;;;;;;4991933;28;20209;-71
2023/06/05 07:49:23;;;;;;;0.50;0.40;;;21.40;78.90;;;;;;4992258;28;20549;-70
2023/06/05 07:51:51;;;;;;;1.10;0.93;;;21.60;78.00;;;;;;4991839;28;20652;-70
2023/06/05 07:54:21;;;;;;;0.63;0.45;;;21.60;77.50;;;;;;4992107;28;20230;-70
2023/06/05 07:56:51;;;;;;;0.60;0.40;;;21.70;76.80;;;;;;4992229;28;20658;-70
2023/06/05 07:59:24;;;;;;;0.80;0.60;;;21.80;77.10;;;;;;4992071;28;20643;-70
2023/06/05 08:01:53;;;;;;;0.60;0.40;;;21.60;77.90;;;;;;4991983;28;20230;-70
2023/06/05 08:04:24;;;;;;;0.60;0.50;;;21.80;79.00;;;;;;4991890;28;20314;-70
2023/06/05 08:06:53;;;;;;;0.60;0.60;;;21.90;77.70;;;;;;4991482;28;20221;-70
2023/06/05 08:09:21;;;;;;;0.60;0.50;;;22.10;77.90;;;;;;4991610;28;20227;-70
2023/06/05 08:11:50;;;;;;;0.60;0.40;;;22.10;77.40;;;;;;4992257;28;20214;-71
2023/06/05 08:14:18;;;;;;;0.50;0.30;;;22.20;76.90;;;;;;4995235;28;20233;-71
2023/06/05 08:16:46;;;;;;;0.60;0.52;;;22.40;77.40;;;;;;4994948;28;20291;-71
2023/06/05 08:19:14;;;;;;;0.60;0.40;;;22.50;77.40;;;;;;4996050;28;20296;-71
2023/06/05 08:21:42;;;;;;;0.70;0.50;;;22.60;79.30;;;;;;4995461;28;20228;-70
2023/06/05 08:24:10;;;;;;;0.60;0.40;;;22.70;75.60;;;;;;4995501;28;20561;-70
2023/06/05 08:26:39;;;;;;;0.60;0.40;;;22.60;74.90;;;;;;4995294;28;20208;-71
2023/06/05 08:29:08;;;;;;;0.60;0.40;;;22.70;75.70;;;;;;4995336;28;20207;-71
2023/06/05 08:31:36;;;;;;;0.60;0.40;;;22.70;77.50;;;;;;4995585;28;20212;-71
2023/06/05 08:34:05;;;;;;;1.15;0.60;;;22.80;76.00;;;;;;4995220;28;20234;-70
2023/06/05 08:36:35;;;;;;;0.60;0.45;;;23.10;79.70;;;;;;4995749;28;20242;-73
2023/06/05 08:39:04;;;;;;;0.60;0.50;;;23.40;75.40;;;;;;4995109;28;20248;-72
2023/06/05 08:41:34;;;;;;;0.60;0.40;;;23.30;77.50;;;;;;4995012;28;20628;-72
2023/06/05 08:44:03;;;;;;;0.60;0.50;;;23.50;77.30;;;;;;4994601;28;20236;-72
2023/06/05 08:46:36;;;;;;;0.50;0.40;;;23.60;74.40;;;;;;4994897;28;20432;-72
2023/06/05 08:49:11;;;;;;;0.60;0.50;;;23.70;76.70;;;;;;4994253;28;20206;-72
2023/06/05 08:51:41;;;;;;;0.60;0.40;;;23.70;75.10;;;;;;4994946;28;20208;-72
2023/06/05 08:54:13;;;;;;;0.60;0.40;;;23.80;75.30;;;;;;4995402;28;20220;-71
2023/06/05 08:56:43;;;;;;;0.60;0.40;;;23.80;75.50;;;;;;4994944;28;20418;-72
2023/06/05 08:59:14;;;;;;;0.60;0.40;;;24.00;77.30;;;;;;4987130;28;20209;-72
2023/06/05 09:01:47;;;;;;;0.60;0.40;;;24.30;76.50;;;;;;4995000;28;20212;-72
2023/06/05 09:04:15;;;;;;;1.00;0.70;;;24.20;75.60;;;;;;4987397;28;20226;-72
2023/06/05 09:06:47;;;;;;;6.38;0.90;;;24.30;76.50;;;;;;4993971;28;20259;-72
2023/06/05 09:09:16;;;;;;;0.60;0.40;;;24.50;78.40;;;;;;4987322;28;20710;-72
2023/06/05 09:11:44;;;;;;;0.95;0.70;;;24.80;75.40;;;;;;4994190;28;20615;-72
2023/06/05 09:14:12;;;;;;;0.70;0.60;;;24.70;74.10;;;;;;4987415;28;20679;-72
2023/06/05 09:16:42;;;;;;;0.60;0.40;;;24.90;75.90;;;;;;4994141;28;20548;-72
2023/06/05 09:19:13;;;;;;;0.60;0.50;;;25.10;74.90;;;;;;4994656;28;20212;-72
2023/06/05 09:21:41;;;;;;;0.60;0.47;;;25.00;75.00;;;;;;4994223;28;20221;-72
2023/06/05 09:24:18;;;;;;;1.88;0.50;;;25.10;76.60;;;;;;4984665;28;20260;-72
2023/06/05 09:26:51;;;;;;;0.70;0.50;;;25.20;74.20;;;;;;4993779;28;20301;-72
2023/06/05 09:29:24;;;;;;;0.60;0.40;;;25.50;75.50;;;;;;4994161;28;20217;-70
2023/06/05 09:31:53;;;;;;;0.60;0.50;;;25.40;74.30;;;;;;4994045;28;20592;-70
2023/06/05 09:34:28;;;;;;;0.70;0.50;;;25.50;75.00;;;;;;4994197;28;20229;-70
2023/06/05 09:36:57;;;;;;;1.60;0.63;;;25.80;76.60;;;;;;4993499;28;20210;-70
2023/06/05 09:39:26;;;;;;;0.60;0.30;;;25.90;75.10;;;;;;4994043;28;20206;-71
2023/06/05 09:41:55;;;;;;;0.60;0.40;;;26.00;75.70;;;;;;4993744;28;20214;-70
2023/06/05 09:44:24;;;;;;;0.80;0.65;;;26.20;74.50;;;;;;4991934;28;21289;-72
2023/06/05 09:46:53;;;;;;;0.60;0.50;;;26.30;73.60;;;;;;4999474;28;20210;-70
2023/06/05 09:49:22;;;;;;;0.88;0.60;;;26.50;73.30;;;;;;5013152;28;20201;-71
2023/06/05 09:51:51;;;;;;;0.70;0.50;;;26.50;73.10;;;;;;5004818;28;20653;-70
2023/06/05 09:54:22;;;;;;;0.68;0.50;;;26.50;73.40;;;;;;5012838;28;20230;-72
2023/06/05 09:56:50;;;;;;;0.70;0.65;;;26.40;74.10;;;;;;5012553;28;20233;-71
2023/06/05 09:59:24;;;;;;;0.82;0.47;;;26.50;71.00;;;;;;5013173;28;20254;-71
2023/06/05 10:01:52;;;;;;;0.70;0.70;;;26.60;70.50;;;;;;5012824;28;20590;-71
2023/06/05 10:04:23;;;;;;;0.70;0.52;;;26.80;71.70;;;;;;5012955;28;20224;-72
2023/06/05 10:06:55;;;;;;;0.70;0.47;;;27.10;74.80;;;;;;5012243;28;20276;-71
2023/06/05 10:09:26;;;;;;;1.40;0.65;;;27.60;69.80;;;;;;5012732;28;20208;-71
2023/06/05 10:11:55;;;;;;;0.60;0.47;;;27.80;70.90;;;;;;5012365;28;20279;-71
2023/06/05 10:14:23;;;;;;;0.70;0.50;;;28.00;72.90;;;;;;5010373;28;20222;-71
2023/06/05 10:16:52;;;;;;;0.68;0.65;;;27.90;70.20;;;;;;4992418;28;20203;-71
2023/06/05 10:19:21;;;;;;;0.60;0.43;;;27.80;71.00;;;;;;4993354;28;20676;-71
2023/06/05 10:21:50;;;;;;;1.35;0.60;;;27.80;71.20;;;;;;4993115;28;20226;-71
2023/06/05 10:24:22;;;;;;;0.60;0.40;;;27.90;69.70;;;;;;4992919;28;20300;-70
2023/06/05 10:27:11;;;;;;;0.60;0.40;;;27.70;69.60;;;;;;4992354;28;20565;-71
2023/06/05 10:29:53;;;;;;;0.60;0.40;;;27.80;70.00;;;;;;4993544;28;20202;-71
2023/06/05 10:32:37;;;;;;;1.50;0.70;;;28.00;71.90;;;;;;4986264;28;20235;-71
2023/06/05 10:35:15;;;;;;;2.00;0.60;;;28.40;70.30;;;;;;4992620;28;20221;-71
2023/06/05 10:37:57;;;;;;;1.10;0.50;;;28.40;71.00;;;;;;4992879;28;20206;-71
2023/06/05 10:40:27;;;;;;;0.77;0.77;;;28.50;69.00;;;;;;4986456;28;20216;-71
2023/06/05 10:46:25;;;;;;;0.60;0.40;;;28.90;69.60;;;;;;4990719;28;20213;-71
2023/06/05 10:49:11;;;;;;;0.60;0.40;;;28.90;67.60;;;;;;4992319;28;20206;-70
2023/06/05 10:51:42;;;;;;;0.60;0.40;;;28.70;69.50;;;;;;4992779;28;20216;-72
2023/06/05 10:54:14;;;;;;;0.60;0.50;;;29.10;68.50;;;;;;4992318;28;20315;-73
2023/06/05 10:57:01;;;;;;;0.60;0.47;;;28.80;66.70;;;;;;4992274;28;20206;-71
2023/06/05 10:59:30;;;;;;;0.60;0.50;;;28.60;67.00;;;;;;4986661;28;20209;-71
2023/06/05 11:02:26;;;;;;;0.73;0.55;;;28.50;65.30;;;;;;4992729;28;20206;-71
2023/06/05 11:05:10;;;;;;;0.60;0.40;;;28.70;64.80;;;;;;4992249;28;20284;-70
2023/06/05 11:07:39;;;;;;;0.80;0.57;;;28.70;64.00;;;;;;4992347;28;20244;-70
2023/06/05 11:10:17;;;;;;;0.60;0.40;;;28.90;65.50;;;;;;4992397;28;20213;-71
2023/06/05 11:13:00;;;;;;;0.70;0.60;;;28.90;64.50;;;;;;4992359;28;20210;-71
2023/06/05 11:15:45;;;;;;;0.70;0.60;;;29.20;62.60;;;;;;4985890;28;20287;-70
2023/06/05 11:18:34;;;;;;;0.68;0.50;;;29.40;64.30;;;;;;4991823;28;20218;-70
2023/06/05 11:21:02;;;;;;;0.82;0.82;;;29.60;64.40;;;;;;4991745;28;20213;-70
2023/06/05 11:23:31;;;;;;;0.70;0.60;;;29.60;60.70;;;;;;4992338;28;20268;-70
2023/06/05 11:26:38;;;;;;;0.80;0.70;;;29.90;63.40;;;;;;4991965;28;21186;-72
2023/06/05 11:29:14;;;;;;;0.60;0.50;;;29.50;60.90;;;;;;4991897;28;20699;-71
2023/06/05 11:31:44;;;;;;;0.60;0.40;;;29.50;61.00;;;;;;4992167;28;20808;-71
2023/06/05 11:34:14;;;;;;;0.70;0.70;;;29.60;61.40;;;;;;4992056;28;20700;-71
2023/06/05 11:36:42;;;;;;;0.70;0.50;;;29.60;60.60;;;;;;4992502;28;20207;-71
2023/06/05 11:39:11;;;;;;;0.60;0.40;;;29.80;61.30;;;;;;4991853;28;20632;-70
2023/06/05 11:41:45;;;;;;;0.80;0.50;;;30.10;60.60;;;;;;4992183;28;20634;-71
2023/06/05 11:44:16;;;;;;;0.77;0.50;;;30.10;59.90;;;;;;4991358;28;20678;-70
2023/06/05 11:46:44;;;;;;;0.80;0.53;;;30.10;58.10;;;;;;4992273;28;20624;-70
2023/06/05 11:49:25;;;;;;;0.70;0.60;;;30.30;58.50;;;;;;4970412;28;20695;-70
2023/06/05 11:51:54;;;;;;;0.60;0.40;;;30.40;58.80;;;;;;4995608;28;20653;-70
2023/06/05 11:54:31;;;;;;;0.60;0.50;;;30.10;56.60;;;;;;4996238;28;20724;-70
2023/06/05 11:57:07;;;;;;;1.03;0.50;;;29.70;57.60;;;;;;4996370;28;20652;-70
2023/06/05 11:59:37;;;;;;;0.60;0.50;;;30.30;61.60;;;;;;4995665;28;20629;-71
2023/06/05 12:02:06;;;;;;;1.27;0.83;;;29.60;58.30;;;;;;4995496;28;20682;-70
2023/06/05 12:04:35;;;;;;;1.07;0.80;;;29.30;59.20;;;;;;4995616;28;20667;-70
2023/06/05 12:07:04;;;;;;;0.80;0.60;;;29.40;60.50;;;;;;4995345;28;21222;-70
2023/06/05 12:09:33;;;;;;;0.80;0.77;;;29.90;61.10;;;;;;4995359;28;20206;-71
2023/06/05 12:12:08;;;;;;;0.90;0.60;;;30.40;58.60;;;;;;4995151;28;20642;-70
2023/06/05 12:14:37;;;;;;;0.70;0.50;;;31.00;58.50;;;;;;4995697;28;20650;-71
2023/06/05 12:17:12;;;;;;;4.10;0.50;;;30.40;57.10;;;;;;4995102;28;20632;-70
2023/06/05 12:19:40;;;;;;;0.70;0.50;;;30.10;58.60;;;;;;4995475;28;20639;-71
2023/06/05 12:22:10;;;;;;;0.60;0.50;;;30.20;60.30;;;;;;4995297;28;20635;-70
2023/06/05 12:24:38;;;;;;;0.70;0.60;;;30.60;60.30;;;;;;4995345;28;21040;-70
2023/06/05 12:27:07;;;;;;;0.73;0.50;;;30.60;61.40;;;;;;4994828;28;20733;-70
2023/06/05 12:29:39;;;;;;;0.70;0.50;;;30.60;60.20;;;;;;4994850;28;21016;-71
2023/06/05 12:32:21;;;;;;;0.60;0.50;;;30.80;60.20;;;;;;4995058;28;20657;-71
2023/06/05 12:34:51;;;;;;;0.60;0.40;;;31.40;60.30;;;;;;4995079;28;20658;-71
2023/06/05 12:37:23;;;;;;;0.60;0.40;;;31.20;60.00;;;;;;4987243;28;20621;-72
2023/06/05 12:39:51;;;;;;;0.60;0.40;;;30.50;60.30;;;;;;4994697;28;20732;-70
2023/06/05 12:42:19;;;;;;;0.70;0.50;;;29.90;59.20;;;;;;4994735;28;20627;-70
2023/06/05 12:44:48;;;;;;;0.70;0.50;;;29.80;59.40;;;;;;4988761;28;20667;-71
2023/06/05 12:47:16;;;;;;;0.80;0.40;;;30.50;58.40;;;;;;4994140;28;20636;-71
2023/06/05 12:49:44;;;;;;;0.60;0.50;;;30.50;58.10;;;;;;4994337;28;20625;-70
2023/06/05 12:52:12;;;;;;;0.60;0.40;;;30.40;58.90;;;;;;4994611;28;20637;-71
2023/06/05 12:54:40;;;;;;;0.70;0.43;;;30.40;61.60;;;;;;4994570;28;20233;-70
2023/06/05 12:57:09;;;;;;;2.30;0.63;;;30.20;61.40;;;;;;4994478;28;20637;-70
2023/06/05 12:59:40;;;;;;;0.80;0.80;;;30.60;60.80;;;;;;4994806;28;20632;-71
2023/06/05 13:02:09;;;;;;;0.73;0.43;;;30.70;58.50;;;;;;4994475;28;20647;-71
2023/06/05 13:04:38;;;;;;;0.60;0.40;;;30.60;58.40;;;;;;4994536;28;20673;-70
2023/06/05 13:07:06;;;;;;;0.60;0.60;;;30.30;59.20;;;;;;4994688;28;20629;-71